Arlington, Kansas
Current Conditions -  °F | °C
As of 10:52 PM on Thursday 27 Nov 2014 (Local Time) from KHUT Reporting Station
Clear Clear  
Wind Chill: 32°   Ceiling: Unl
Heat Index: 40°   Visibility: 10mi
Dew Point: 23°   Wind: 14mph
Humidity: 51%   Direction: 180°S
Pressure: 30.13"   Gusts: NA
Location:  37.9°N, 98.18°W
Report Text: KHUT 280452Z 18012KT 10SM CLR 04/M05 A3013 RMK AO2 SLP206 T00441050
Loading
Personal Weather Stations






























Interactive Weather Map New forecast layout! Learn more

10-Day Weather Forecast

Advertisements
Track Severe Weather on mobile